sensor_id;sensor_type;location;lat;lon;timestamp;temperature;humidity
1361;DHT22;674;45.552;-122.600;2023-05-14T00:01:08;32.00;1.00
1361;DHT22;674;45.552;-122.600;2023-05-14T00:03:36;32.00;1.00
1361;DHT22;674;45.552;-122.600;2023-05-14T00:06:06;32.00;1.00
1361;DHT22;674;45.552;-122.600;2023-05-14T00:08:36;32.00;1.00
1361;DHT22;674;45.552;-122.600;2023-05-14T00:11:04;32.00;1.00
1361;DHT22;674;45.552;-122.600;2023-05-14T00:13:35;32.00;1.00
1361;DHT22;674;45.552;-122.600;2023-05-14T00:16:04;31.90;1.00
1361;DHT22;674;45.552;-122.600;2023-05-14T00:18:32;32.00;1.00
1361;DHT22;674;45.552;-122.600;2023-05-14T00:21:01;32.00;1.00
1361;DHT22;674;45.552;-122.600;2023-05-14T00:23:29;32.00;1.00
1361;DHT22;674;45.552;-122.600;2023-05-14T00:25:58;32.00;1.00
1361;DHT22;674;45.552;-122.600;2023-05-14T00:28:26;31.90;1.00
1361;DHT22;674;45.552;-122.600;2023-05-14T00:30:55;31.90;1.00
1361;DHT22;674;45.552;-122.600;2023-05-14T00:33:24;31.90;1.00
1361;DHT22;674;45.552;-122.600;2023-05-14T00:35:52;31.90;1.00
1361;DHT22;674;45.552;-122.600;2023-05-14T00:38:21;32.00;1.00
1361;DHT22;674;45.552;-122.600;2023-05-14T00:40:51;31.90;1.00
1361;DHT22;674;45.552;-122.600;2023-05-14T00:43:20;31.90;1.00
1361;DHT22;674;45.552;-122.600;2023-05-14T00:45:51;31.80;1.00
1361;DHT22;674;45.552;-122.600;2023-05-14T00:48:20;31.80;1.00
1361;DHT22;674;45.552;-122.600;2023-05-14T00:50:50;31.80;1.00
1361;DHT22;674;45.552;-122.600;2023-05-14T00:53:18;31.70;1.00
1361;DHT22;674;45.552;-122.600;2023-05-14T00:55:48;31.80;1.00
1361;DHT22;674;45.552;-122.600;2023-05-14T00:58:17;31.80;1.00
1361;DHT22;674;45.552;-122.600;2023-05-14T01:00:46;31.70;1.00
1361;DHT22;674;45.552;-122.600;2023-05-14T01:03:15;31.70;1.00
1361;DHT22;674;45.552;-122.600;2023-05-14T01:05:55;31.70;1.00
1361;DHT22;674;45.552;-122.600;2023-05-14T01:11:31;31.60;1.00
1361;DHT22;674;45.552;-122.600;2023-05-14T01:17:20;31.70;1.00
1361;DHT22;674;45.552;-122.600;2023-05-14T01:19:50;31.50;1.00
1361;DHT22;674;45.552;-122.600;2023-05-14T01:22:19;31.50;1.00
1361;DHT22;674;45.552;-122.600;2023-05-14T01:24:47;31.50;1.00
1361;DHT22;674;45.552;-122.600;2023-05-14T01:29:52;31.40;1.00
1361;DHT22;674;45.552;-122.600;2023-05-14T01:32:25;31.40;1.00
1361;DHT22;674;45.552;-122.600;2023-05-14T01:34:56;31.40;1.00
1361;DHT22;674;45.552;-122.600;2023-05-14T01:37:26;31.30;1.00
1361;DHT22;674;45.552;-122.600;2023-05-14T01:39:58;31.30;1.00
1361;DHT22;674;45.552;-122.600;2023-05-14T01:42:27;31.30;1.00
1361;DHT22;674;45.552;-122.600;2023-05-14T01:44:56;31.30;1.00
1361;DHT22;674;45.552;-122.600;2023-05-14T01:47:24;31.30;1.00
1361;DHT22;674;45.552;-122.600;2023-05-14T01:49:53;31.30;1.00
1361;DHT22;674;45.552;-122.600;2023-05-14T01:52:21;31.20;1.00
1361;DHT22;674;45.552;-122.600;2023-05-14T01:54:50;31.10;1.00
1361;DHT22;674;45.552;-122.600;2023-05-14T01:57:18;31.10;1.00
1361;DHT22;674;45.552;-122.600;2023-05-14T01:59:47;31.10;1.00
1361;DHT22;674;45.552;-122.600;2023-05-14T02:02:15;31.10;1.00
1361;DHT22;674;45.552;-122.600;2023-05-14T02:04:43;31.00;1.00
1361;DHT22;674;45.552;-122.600;2023-05-14T02:07:12;31.00;1.00
1361;DHT22;674;45.552;-122.600;2023-05-14T02:09:40;30.90;1.00
1361;DHT22;674;45.552;-122.600;2023-05-14T02:12:09;30.80;1.00
1361;DHT22;674;45.552;-122.600;2023-05-14T02:14:38;30.80;1.00
1361;DHT22;674;45.552;-122.600;2023-05-14T02:17:07;30.80;1.00
1361;DHT22;674;45.552;-122.600;2023-05-14T02:19:35;30.70;1.00
1361;DHT22;674;45.552;-122.600;2023-05-14T02:22:04;30.70;1.00
1361;DHT22;674;45.552;-122.600;2023-05-14T02:24:32;30.60;1.00
1361;DHT22;674;45.552;-122.600;2023-05-14T02:27:00;30.50;1.00
1361;DHT22;674;45.552;-122.600;2023-05-14T02:29:29;30.50;1.00
1361;DHT22;674;45.552;-122.600;2023-05-14T02:31:57;30.50;1.00
1361;DHT22;674;45.552;-122.600;2023-05-14T02:34:26;30.40;1.00
1361;DHT22;674;45.552;-122.600;2023-05-14T02:36:54;30.30;1.00
1361;DHT22;674;45.552;-122.600;2023-05-14T02:39:22;30.30;1.00
1361;DHT22;674;45.552;-122.600;2023-05-14T02:41:51;30.20;1.00
1361;DHT22;674;45.552;-122.600;2023-05-14T02:44:19;30.00;1.00
1361;DHT22;674;45.552;-122.600;2023-05-14T02:46:48;30.00;1.00
1361;DHT22;674;45.552;-122.600;2023-05-14T02:49:16;29.90;1.00
1361;DHT22;674;45.552;-122.600;2023-05-14T02:51:45;29.90;1.00
1361;DHT22;674;45.552;-122.600;2023-05-14T02:54:13;29.80;1.00
1361;DHT22;674;45.552;-122.600;2023-05-14T02:56:43;29.80;1.00
1361;DHT22;674;45.552;-122.600;2023-05-14T02:59:11;29.60;1.00
1361;DHT22;674;45.552;-122.600;2023-05-14T03:01:40;29.50;1.00
1361;DHT22;674;45.552;-122.600;2023-05-14T03:04:09;29.40;1.00
1361;DHT22;674;45.552;-122.600;2023-05-14T03:06:38;29.30;1.00
1361;DHT22;674;45.552;-122.600;2023-05-14T03:09:06;29.20;1.00
1361;DHT22;674;45.552;-122.600;2023-05-14T03:11:35;29.10;1.00
1361;DHT22;674;45.552;-122.600;2023-05-14T03:14:03;28.80;1.00
1361;DHT22;674;45.552;-122.600;2023-05-14T03:16:31;28.60;1.00
1361;DHT22;674;45.552;-122.600;2023-05-14T03:19:00;28.30;1.00
1361;DHT22;674;45.552;-122.600;2023-05-14T03:21:28;28.10;1.00
1361;DHT22;674;45.552;-122.600;2023-05-14T03:23:58;28.00;1.00
1361;DHT22;674;45.552;-122.600;2023-05-14T03:26:26;27.50;1.00
1361;DHT22;674;45.552;-122.600;2023-05-14T03:28:54;27.20;1.00
1361;DHT22;674;45.552;-122.600;2023-05-14T03:31:23;27.10;1.00
1361;DHT22;674;45.552;-122.600;2023-05-14T03:33:51;26.90;1.00
1361;DHT22;674;45.552;-122.600;2023-05-14T03:36:20;26.60;1.00
1361;DHT22;674;45.552;-122.600;2023-05-14T03:38:48;26.40;1.00
1361;DHT22;674;45.552;-122.600;2023-05-14T03:41:17;26.30;1.00
1361;DHT22;674;45.552;-122.600;2023-05-14T03:43:46;26.00;1.00
1361;DHT22;674;45.552;-122.600;2023-05-14T03:46:15;25.70;1.00
1361;DHT22;674;45.552;-122.600;2023-05-14T03:48:43;25.60;1.00
1361;DHT22;674;45.552;-122.600;2023-05-14T03:51:12;25.40;1.00
1361;DHT22;674;45.552;-122.600;2023-05-14T03:53:40;25.20;1.00
1361;DHT22;674;45.552;-122.600;2023-05-14T03:56:08;25.00;1.00
1361;DHT22;674;45.552;-122.600;2023-05-14T03:58:37;25.00;1.00
1361;DHT22;674;45.552;-122.600;2023-05-14T04:01:05;24.80;1.00
1361;DHT22;674;45.552;-122.600;2023-05-14T04:03:33;24.60;1.00
1361;DHT22;674;45.552;-122.600;2023-05-14T04:06:02;24.50;1.00
1361;DHT22;674;45.552;-122.600;2023-05-14T04:08:31;24.40;1.00
1361;DHT22;674;45.552;-122.600;2023-05-14T04:10:59;24.30;1.00
1361;DHT22;674;45.552;-122.600;2023-05-14T04:13:27;24.20;1.00
1361;DHT22;674;45.552;-122.600;2023-05-14T04:15:56;24.10;1.00
1361;DHT22;674;45.552;-122.600;2023-05-14T04:18:24;24.00;1.00
1361;DHT22;674;45.552;-122.600;2023-05-14T04:20:53;23.90;1.00
1361;DHT22;674;45.552;-122.600;2023-05-14T04:23:21;23.80;1.00
1361;DHT22;674;45.552;-122.600;2023-05-14T04:25:49;23.70;1.00
1361;DHT22;674;45.552;-122.600;2023-05-14T04:28:18;23.60;1.00
1361;DHT22;674;45.552;-122.600;2023-05-14T04:30:47;23.40;1.00
1361;DHT22;674;45.552;-122.600;2023-05-14T04:33:16;23.30;1.00
1361;DHT22;674;45.552;-122.600;2023-05-14T04:35:44;23.40;1.00
1361;DHT22;674;45.552;-122.600;2023-05-14T04:38:13;23.20;1.00
1361;DHT22;674;45.552;-122.600;2023-05-14T04:40:41;23.10;1.00
1361;DHT22;674;45.552;-122.600;2023-05-14T04:43:09;23.10;1.00
1361;DHT22;674;45.552;-122.600;2023-05-14T04:45:38;23.00;1.00
1361;DHT22;674;45.552;-122.600;2023-05-14T04:48:07;23.00;1.00
1361;DHT22;674;45.552;-122.600;2023-05-14T04:50:36;23.00;1.00
1361;DHT22;674;45.552;-122.600;2023-05-14T04:53:04;22.80;1.00
1361;DHT22;674;45.552;-122.600;2023-05-14T04:55:33;22.80;1.00
1361;DHT22;674;45.552;-122.600;2023-05-14T04:58:01;22.80;1.00
1361;DHT22;674;45.552;-122.600;2023-05-14T05:00:30;22.60;1.00
1361;DHT22;674;45.552;-122.600;2023-05-14T05:02:58;22.40;1.00
1361;DHT22;674;45.552;-122.600;2023-05-14T05:05:27;22.40;1.00
1361;DHT22;674;45.552;-122.600;2023-05-14T05:07:55;22.40;1.00
1361;DHT22;674;45.552;-122.600;2023-05-14T05:10:24;22.30;1.00
1361;DHT22;674;45.552;-122.600;2023-05-14T05:12:52;22.20;1.00
1361;DHT22;674;45.552;-122.600;2023-05-14T05:15:21;22.20;1.00
1361;DHT22;674;45.552;-122.600;2023-05-14T05:17:52;22.50;1.00
1361;DHT22;674;45.552;-122.600;2023-05-14T05:20:20;22.70;1.00
1361;DHT22;674;45.552;-122.600;2023-05-14T05:22:50;23.10;1.00
1361;DHT22;674;45.552;-122.600;2023-05-14T05:25:18;23.00;1.00
1361;DHT22;674;45.552;-122.600;2023-05-14T05:27:47;22.70;1.00
1361;DHT22;674;45.552;-122.600;2023-05-14T05:30:15;22.60;1.00
1361;DHT22;674;45.552;-122.600;2023-05-14T05:32:43;22.50;1.00
1361;DHT22;674;45.552;-122.600;2023-05-14T05:35:12;22.40;1.00
1361;DHT22;674;45.552;-122.600;2023-05-14T05:37:41;22.40;1.00
1361;DHT22;674;45.552;-122.600;2023-05-14T05:40:12;22.10;1.00
1361;DHT22;674;45.552;-122.600;2023-05-14T05:42:41;22.20;1.00
1361;DHT22;674;45.552;-122.600;2023-05-14T05:45:10;22.00;1.00
1361;DHT22;674;45.552;-122.600;2023-05-14T05:47:38;21.90;1.00
1361;DHT22;674;45.552;-122.600;2023-05-14T05:50:07;21.80;1.00
1361;DHT22;674;45.552;-122.600;2023-05-14T05:52:36;21.80;1.00
1361;DHT22;674;45.552;-122.600;2023-05-14T05:55:05;21.80;1.00
1361;DHT22;674;45.552;-122.600;2023-05-14T05:57:34;21.80;1.00
1361;DHT22;674;45.552;-122.600;2023-05-14T06:00:02;21.80;1.00
1361;DHT22;674;45.552;-122.600;2023-05-14T06:02:40;21.70;1.00
1361;DHT22;674;45.552;-122.600;2023-05-14T06:05:09;21.50;1.00
1361;DHT22;674;45.552;-122.600;2023-05-14T06:07:38;21.50;1.00
1361;DHT22;674;45.552;-122.600;2023-05-14T06:10:07;21.50;1.00
1361;DHT22;674;45.552;-122.600;2023-05-14T06:12:35;21.40;1.00
1361;DHT22;674;45.552;-122.600;2023-05-14T06:15:04;21.30;1.00
1361;DHT22;674;45.552;-122.600;2023-05-14T06:17:32;21.30;1.00
1361;DHT22;674;45.552;-122.600;2023-05-14T06:20:01;21.20;1.00
1361;DHT22;674;45.552;-122.600;2023-05-14T06:22:29;21.10;1.00
1361;DHT22;674;45.552;-122.600;2023-05-14T06:24:58;21.10;1.00
1361;DHT22;674;45.552;-122.600;2023-05-14T06:27:26;21.10;1.00
1361;DHT22;674;45.552;-122.600;2023-05-14T06:29:54;20.90;1.00
1361;DHT22;674;45.552;-122.600;2023-05-14T06:32:23;20.90;1.00
1361;DHT22;674;45.552;-122.600;2023-05-14T06:34:51;20.90;1.00
1361;DHT22;674;45.552;-122.600;2023-05-14T06:37:19;20.80;1.00
1361;DHT22;674;45.552;-122.600;2023-05-14T06:39:48;20.70;1.00
1361;DHT22;674;45.552;-122.600;2023-05-14T06:42:20;20.60;1.00
1361;DHT22;674;45.552;-122.600;2023-05-14T06:44:49;20.60;1.00
1361;DHT22;674;45.552;-122.600;2023-05-14T06:47:17;20.50;1.00
1361;DHT22;674;45.552;-122.600;2023-05-14T06:49:45;20.50;1.00
1361;DHT22;674;45.552;-122.600;2023-05-14T06:52:14;20.40;1.00
1361;DHT22;674;45.552;-122.600;2023-05-14T06:54:42;20.50;1.00
1361;DHT22;674;45.552;-122.600;2023-05-14T06:57:10;20.40;1.00
1361;DHT22;674;45.552;-122.600;2023-05-14T06:59:39;20.30;1.00
1361;DHT22;674;45.552;-122.600;2023-05-14T07:02:08;20.30;1.00
1361;DHT22;674;45.552;-122.600;2023-05-14T07:04:36;20.40;1.00
1361;DHT22;674;45.552;-122.600;2023-05-14T07:07:04;20.30;1.00
1361;DHT22;674;45.552;-122.600;2023-05-14T07:09:33;20.30;1.00
1361;DHT22;674;45.552;-122.600;2023-05-14T07:12:01;20.30;1.00
1361;DHT22;674;45.552;-122.600;2023-05-14T07:14:29;20.30;1.00
1361;DHT22;674;45.552;-122.600;2023-05-14T07:16:58;20.30;1.00
1361;DHT22;674;45.552;-122.600;2023-05-14T07:19:26;20.30;1.00
1361;DHT22;674;45.552;-122.600;2023-05-14T07:21:56;20.20;1.00
1361;DHT22;674;45.552;-122.600;2023-05-14T07:24:25;20.10;1.00
1361;DHT22;674;45.552;-122.600;2023-05-14T07:26:53;20.10;1.00
1361;DHT22;674;45.552;-122.600;2023-05-14T07:29:23;20.00;1.00
1361;DHT22;674;45.552;-122.600;2023-05-14T07:31:52;20.10;1.00
1361;DHT22;674;45.552;-122.600;2023-05-14T07:34:20;20.00;1.00
1361;DHT22;674;45.552;-122.600;2023-05-14T07:36:49;19.90;1.00
1361;DHT22;674;45.552;-122.600;2023-05-14T07:39:17;20.00;1.00
1361;DHT22;674;45.552;-122.600;2023-05-14T07:41:45;19.90;1.00
1361;DHT22;674;45.552;-122.600;2023-05-14T07:44:14;19.90;1.00
1361;DHT22;674;45.552;-122.600;2023-05-14T07:46:42;19.90;1.00
1361;DHT22;674;45.552;-122.600;2023-05-14T07:49:10;19.80;1.00
1361;DHT22;674;45.552;-122.600;2023-05-14T07:51:39;19.70;1.00
1361;DHT22;674;45.552;-122.600;2023-05-14T07:54:07;19.70;1.00
1361;DHT22;674;45.552;-122.600;2023-05-14T07:56:35;19.70;1.00
1361;DHT22;674;45.552;-122.600;2023-05-14T07:59:04;19.70;1.00
1361;DHT22;674;45.552;-122.600;2023-05-14T08:01:33;19.70;1.00
1361;DHT22;674;45.552;-122.600;2023-05-14T08:04:05;19.60;1.00
1361;DHT22;674;45.552;-122.600;2023-05-14T08:06:33;19.60;1.00
1361;DHT22;674;45.552;-122.600;2023-05-14T08:09:02;19.50;1.00
1361;DHT22;674;45.552;-122.600;2023-05-14T08:11:32;19.30;1.00
1361;DHT22;674;45.552;-122.600;2023-05-14T08:14:00;19.30;1.00
1361;DHT22;674;45.552;-122.600;2023-05-14T08:16:28;19.30;1.00
1361;DHT22;674;45.552;-122.600;2023-05-14T08:18:57;19.30;1.00
1361;DHT22;674;45.552;-122.600;2023-05-14T08:21:25;19.30;1.00
1361;DHT22;674;45.552;-122.600;2023-05-14T08:23:54;19.30;1.00
1361;DHT22;674;45.552;-122.600;2023-05-14T08:26:23;19.20;1.00
1361;DHT22;674;45.552;-122.600;2023-05-14T08:28:52;19.20;1.00
1361;DHT22;674;45.552;-122.600;2023-05-14T08:31:21;19.20;1.00
1361;DHT22;674;45.552;-122.600;2023-05-14T08:33:50;19.00;1.00
1361;DHT22;674;45.552;-122.600;2023-05-14T08:36:18;19.00;1.00
1361;DHT22;674;45.552;-122.600;2023-05-14T08:38:46;19.00;1.00
1361;DHT22;674;45.552;-122.600;2023-05-14T08:41:17;19.00;1.00
1361;DHT22;674;45.552;-122.600;2023-05-14T08:46:33;19.00;1.00
1361;DHT22;674;45.552;-122.600;2023-05-14T08:49:14;18.80;1.00
1361;DHT22;674;45.552;-122.600;2023-05-14T08:51:45;18.80;1.00
1361;DHT22;674;45.552;-122.600;2023-05-14T08:54:17;18.70;1.00
1361;DHT22;674;45.552;-122.600;2023-05-14T08:56:46;18.70;1.00
1361;DHT22;674;45.552;-122.600;2023-05-14T08:59:18;18.60;1.00
1361;DHT22;674;45.552;-122.600;2023-05-14T09:01:47;18.60;1.00
1361;DHT22;674;45.552;-122.600;2023-05-14T09:04:22;18.60;1.00
1361;DHT22;674;45.552;-122.600;2023-05-14T09:06:52;18.60;1.00
1361;DHT22;674;45.552;-122.600;2023-05-14T09:09:22;18.50;1.00
1361;DHT22;674;45.552;-122.600;2023-05-14T09:11:51;18.60;1.00
1361;DHT22;674;45.552;-122.600;2023-05-14T09:14:20;18.60;1.00
1361;DHT22;674;45.552;-122.600;2023-05-14T09:16:50;18.50;1.00
1361;DHT22;674;45.552;-122.600;2023-05-14T09:19:19;18.40;1.00
1361;DHT22;674;45.552;-122.600;2023-05-14T09:21:49;18.40;1.00
1361;DHT22;674;45.552;-122.600;2023-05-14T09:24:21;18.40;1.00
1361;DHT22;674;45.552;-122.600;2023-05-14T09:26:53;18.30;1.00
1361;DHT22;674;45.552;-122.600;2023-05-14T09:29:23;18.30;1.00
1361;DHT22;674;45.552;-122.600;2023-05-14T09:31:54;18.30;1.00
1361;DHT22;674;45.552;-122.600;2023-05-14T09:34:30;18.30;1.00
1361;DHT22;674;45.552;-122.600;2023-05-14T09:37:04;18.30;1.00
1361;DHT22;674;45.552;-122.600;2023-05-14T09:39:33;18.20;1.00
1361;DHT22;674;45.552;-122.600;2023-05-14T09:42:03;18.20;1.00
1361;DHT22;674;45.552;-122.600;2023-05-14T09:44:32;18.20;1.00
1361;DHT22;674;45.552;-122.600;2023-05-14T09:47:00;18.20;1.00
1361;DHT22;674;45.552;-122.600;2023-05-14T09:49:28;18.10;1.00
1361;DHT22;674;45.552;-122.600;2023-05-14T09:51:57;18.10;1.00
1361;DHT22;674;45.552;-122.600;2023-05-14T09:54:25;18.10;1.00
1361;DHT22;674;45.552;-122.600;2023-05-14T09:56:54;18.00;1.00
1361;DHT22;674;45.552;-122.600;2023-05-14T09:59:22;18.00;1.00
1361;DHT22;674;45.552;-122.600;2023-05-14T10:01:51;18.00;1.00
1361;DHT22;674;45.552;-122.600;2023-05-14T10:04:20;18.00;1.00
1361;DHT22;674;45.552;-122.600;2023-05-14T10:06:50;18.00;1.00
1361;DHT22;674;45.552;-122.600;2023-05-14T10:09:21;17.80;1.00
1361;DHT22;674;45.552;-122.600;2023-05-14T10:11:57;17.80;1.00
1361;DHT22;674;45.552;-122.600;2023-05-14T10:14:37;17.80;1.00
1361;DHT22;674;45.552;-122.600;2023-05-14T10:17:08;17.70;1.00
1361;DHT22;674;45.552;-122.600;2023-05-14T10:19:51;17.70;1.00
1361;DHT22;674;45.552;-122.600;2023-05-14T10:22:30;17.80;1.00
1361;DHT22;674;45.552;-122.600;2023-05-14T10:25:02;17.80;1.00
1361;DHT22;674;45.552;-122.600;2023-05-14T10:27:31;17.70;1.00
1361;DHT22;674;45.552;-122.600;2023-05-14T10:30:01;17.70;1.00
1361;DHT22;674;45.552;-122.600;2023-05-14T10:32:33;17.70;1.00
1361;DHT22;674;45.552;-122.600;2023-05-14T10:35:24;17.70;1.00
1361;DHT22;674;45.552;-122.600;2023-05-14T10:37:56;17.70;1.00
1361;DHT22;674;45.552;-122.600;2023-05-14T10:40:24;17.70;1.00
1361;DHT22;674;45.552;-122.600;2023-05-14T10:42:54;17.60;1.00
1361;DHT22;674;45.552;-122.600;2023-05-14T10:45:26;17.60;1.00
1361;DHT22;674;45.552;-122.600;2023-05-14T10:47:54;17.60;1.00
1361;DHT22;674;45.552;-122.600;2023-05-14T10:50:23;17.70;1.00
1361;DHT22;674;45.552;-122.600;2023-05-14T10:52:53;17.70;1.00
1361;DHT22;674;45.552;-122.600;2023-05-14T10:55:22;17.60;1.00
1361;DHT22;674;45.552;-122.600;2023-05-14T10:57:51;17.60;1.00
1361;DHT22;674;45.552;-122.600;2023-05-14T11:00:24;17.60;1.00
1361;DHT22;674;45.552;-122.600;2023-05-14T11:02:55;17.50;1.00
1361;DHT22;674;45.552;-122.600;2023-05-14T11:05:26;17.40;1.00
1361;DHT22;674;45.552;-122.600;2023-05-14T11:07:56;17.30;1.00
1361;DHT22;674;45.552;-122.600;2023-05-14T11:10:25;17.40;1.00
1361;DHT22;674;45.552;-122.600;2023-05-14T11:12:56;17.40;1.00
1361;DHT22;674;45.552;-122.600;2023-05-14T11:15:26;17.40;1.00
1361;DHT22;674;45.552;-122.600;2023-05-14T11:17:55;17.30;1.00
1361;DHT22;674;45.552;-122.600;2023-05-14T11:20:23;17.30;1.00
1361;DHT22;674;45.552;-122.600;2023-05-14T11:22:52;17.30;1.00
1361;DHT22;674;45.552;-122.600;2023-05-14T11:25:20;17.20;1.00
1361;DHT22;674;45.552;-122.600;2023-05-14T11:27:49;17.20;1.00
1361;DHT22;674;45.552;-122.600;2023-05-14T11:30:19;17.10;1.00
1361;DHT22;674;45.552;-122.600;2023-05-14T11:32:48;16.90;1.00
1361;DHT22;674;45.552;-122.600;2023-05-14T11:35:17;16.90;1.00
1361;DHT22;674;45.552;-122.600;2023-05-14T11:37:51;16.90;1.00
1361;DHT22;674;45.552;-122.600;2023-05-14T11:40:20;16.90;1.00
1361;DHT22;674;45.552;-122.600;2023-05-14T11:42:52;16.90;1.00
1361;DHT22;674;45.552;-122.600;2023-05-14T11:45:26;16.90;1.00
1361;DHT22;674;45.552;-122.600;2023-05-14T11:47:56;16.90;1.00
1361;DHT22;674;45.552;-122.600;2023-05-14T11:50:25;16.90;1.00
1361;DHT22;674;45.552;-122.600;2023-05-14T11:52:56;16.80;1.00
1361;DHT22;674;45.552;-122.600;2023-05-14T11:55:24;16.80;1.00
1361;DHT22;674;45.552;-122.600;2023-05-14T11:57:53;16.60;1.00
1361;DHT22;674;45.552;-122.600;2023-05-14T12:00:21;16.70;1.00
1361;DHT22;674;45.552;-122.600;2023-05-14T12:02:51;16.70;1.00
1361;DHT22;674;45.552;-122.600;2023-05-14T12:05:20;16.70;1.00
1361;DHT22;674;45.552;-122.600;2023-05-14T12:07:48;16.60;1.00
1361;DHT22;674;45.552;-122.600;2023-05-14T12:10:17;16.70;1.00
1361;DHT22;674;45.552;-122.600;2023-05-14T12:12:47;16.70;1.00
1361;DHT22;674;45.552;-122.600;2023-05-14T12:15:15;16.60;1.00
1361;DHT22;674;45.552;-122.600;2023-05-14T12:17:50;16.70;1.00
1361;DHT22;674;45.552;-122.600;2023-05-14T12:20:18;16.70;1.00
1361;DHT22;674;45.552;-122.600;2023-05-14T12:22:47;16.70;1.00
1361;DHT22;674;45.552;-122.600;2023-05-14T12:25:16;16.80;1.00
1361;DHT22;674;45.552;-122.600;2023-05-14T12:27:44;16.60;1.00
1361;DHT22;674;45.552;-122.600;2023-05-14T12:30:13;16.60;1.00
1361;DHT22;674;45.552;-122.600;2023-05-14T12:32:44;16.70;1.00
1361;DHT22;674;45.552;-122.600;2023-05-14T12:35:13;16.60;1.00
1361;DHT22;674;45.552;-122.600;2023-05-14T12:37:41;16.50;1.00
1361;DHT22;674;45.552;-122.600;2023-05-14T12:40:10;16.70;1.00
1361;DHT22;674;45.552;-122.600;2023-05-14T12:42:38;16.70;1.00
1361;DHT22;674;45.552;-122.600;2023-05-14T12:45:07;16.50;1.00
1361;DHT22;674;45.552;-122.600;2023-05-14T12:47:35;16.50;1.00
1361;DHT22;674;45.552;-122.600;2023-05-14T12:50:04;16.50;1.00
1361;DHT22;674;45.552;-122.600;2023-05-14T12:52:33;16.50;1.00
1361;DHT22;674;45.552;-122.600;2023-05-14T12:55:07;16.60;1.00
1361;DHT22;674;45.552;-122.600;2023-05-14T12:57:36;16.50;1.00
1361;DHT22;674;45.552;-122.600;2023-05-14T13:00:08;16.40;1.00
1361;DHT22;674;45.552;-122.600;2023-05-14T13:02:40;16.40;1.00
1361;DHT22;674;45.552;-122.600;2023-05-14T13:05:10;16.50;1.00
1361;DHT22;674;45.552;-122.600;2023-05-14T13:07:39;17.00;1.00
1361;DHT22;674;45.552;-122.600;2023-05-14T13:10:08;17.80;1.00
1361;DHT22;674;45.552;-122.600;2023-05-14T13:12:37;18.30;1.00
1361;DHT22;674;45.552;-122.600;2023-05-14T13:15:05;18.60;1.00
1361;DHT22;674;45.552;-122.600;2023-05-14T13:17:35;18.80;1.00
1361;DHT22;674;45.552;-122.600;2023-05-14T13:20:04;19.00;1.00
1361;DHT22;674;45.552;-122.600;2023-05-14T13:22:33;19.20;1.00
1361;DHT22;674;45.552;-122.600;2023-05-14T13:25:02;19.30;1.00
1361;DHT22;674;45.552;-122.600;2023-05-14T13:27:31;19.40;1.00
1361;DHT22;674;45.552;-122.600;2023-05-14T13:30:00;19.50;1.00
1361;DHT22;674;45.552;-122.600;2023-05-14T13:32:28;19.60;1.00
1361;DHT22;674;45.552;-122.600;2023-05-14T13:34:57;19.70;1.00
1361;DHT22;674;45.552;-122.600;2023-05-14T13:37:25;19.80;1.00
1361;DHT22;674;45.552;-122.600;2023-05-14T13:39:54;20.00;1.00
1361;DHT22;674;45.552;-122.600;2023-05-14T13:42:22;20.10;1.00
1361;DHT22;674;45.552;-122.600;2023-05-14T13:44:50;20.40;1.00
1361;DHT22;674;45.552;-122.600;2023-05-14T13:47:19;20.50;1.00
1361;DHT22;674;45.552;-122.600;2023-05-14T13:49:47;20.80;1.00
1361;DHT22;674;45.552;-122.600;2023-05-14T13:52:16;21.00;1.00
1361;DHT22;674;45.552;-122.600;2023-05-14T13:54:44;21.00;1.00
1361;DHT22;674;45.552;-122.600;2023-05-14T13:57:13;21.10;1.00
1361;DHT22;674;45.552;-122.600;2023-05-14T13:59:41;21.20;1.00
1361;DHT22;674;45.552;-122.600;2023-05-14T14:02:10;21.30;1.00
1361;DHT22;674;45.552;-122.600;2023-05-14T14:04:38;21.50;1.00
1361;DHT22;674;45.552;-122.600;2023-05-14T14:07:07;21.70;1.00
1361;DHT22;674;45.552;-122.600;2023-05-14T14:09:35;21.90;1.00
1361;DHT22;674;45.552;-122.600;2023-05-14T14:12:05;22.20;1.00
1361;DHT22;674;45.552;-122.600;2023-05-14T14:14:33;22.40;1.00
1361;DHT22;674;45.552;-122.600;2023-05-14T14:17:01;22.60;1.00
1361;DHT22;674;45.552;-122.600;2023-05-14T14:19:30;22.70;1.00
1361;DHT22;674;45.552;-122.600;2023-05-14T14:21:58;22.90;1.00
1361;DHT22;674;45.552;-122.600;2023-05-14T14:24:27;23.00;1.00
1361;DHT22;674;45.552;-122.600;2023-05-14T14:26:55;23.20;1.00
1361;DHT22;674;45.552;-122.600;2023-05-14T14:29:23;23.30;1.00
1361;DHT22;674;45.552;-122.600;2023-05-14T14:31:52;23.50;1.00
1361;DHT22;674;45.552;-122.600;2023-05-14T14:34:21;23.40;1.00
1361;DHT22;674;45.552;-122.600;2023-05-14T14:36:49;23.60;1.00
1361;DHT22;674;45.552;-122.600;2023-05-14T14:39:17;23.70;1.00
1361;DHT22;674;45.552;-122.600;2023-05-14T14:41:46;23.80;1.00
1361;DHT22;674;45.552;-122.600;2023-05-14T14:44:14;24.00;1.00
1361;DHT22;674;45.552;-122.600;2023-05-14T14:46:42;24.20;1.00
1361;DHT22;674;45.552;-122.600;2023-05-14T14:49:11;24.30;1.00
1361;DHT22;674;45.552;-122.600;2023-05-14T14:51:39;24.30;1.00
1361;DHT22;674;45.552;-122.600;2023-05-14T14:54:07;24.50;1.00
1361;DHT22;674;45.552;-122.600;2023-05-14T14:56:36;24.40;1.00
1361;DHT22;674;45.552;-122.600;2023-05-14T14:59:04;24.60;1.00
1361;DHT22;674;45.552;-122.600;2023-05-14T15:01:33;24.70;1.00
1361;DHT22;674;45.552;-122.600;2023-05-14T15:04:01;24.90;1.00
1361;DHT22;674;45.552;-122.600;2023-05-14T15:06:29;25.10;1.00
1361;DHT22;674;45.552;-122.600;2023-05-14T15:08:58;25.20;1.00
1361;DHT22;674;45.552;-122.600;2023-05-14T15:11:26;25.90;1.00
1361;DHT22;674;45.552;-122.600;2023-05-14T15:13:55;26.90;1.00
1361;DHT22;674;45.552;-122.600;2023-05-14T15:16:24;27.30;1.00
1361;DHT22;674;45.552;-122.600;2023-05-14T15:18:52;27.80;1.00
1361;DHT22;674;45.552;-122.600;2023-05-14T15:21:21;27.90;1.00
1361;DHT22;674;45.552;-122.600;2023-05-14T15:23:49;28.30;1.00
1361;DHT22;674;45.552;-122.600;2023-05-14T15:26:17;28.80;1.00
1361;DHT22;674;45.552;-122.600;2023-05-14T15:28:46;28.40;1.00
1361;DHT22;674;45.552;-122.600;2023-05-14T15:31:14;28.10;1.00
1361;DHT22;674;45.552;-122.600;2023-05-14T15:33:42;29.40;1.00
1361;DHT22;674;45.552;-122.600;2023-05-14T15:36:11;29.40;1.00
1361;DHT22;674;45.552;-122.600;2023-05-14T15:38:39;29.10;1.00
1361;DHT22;674;45.552;-122.600;2023-05-14T15:41:09;28.50;1.00
1361;DHT22;674;45.552;-122.600;2023-05-14T15:43:37;29.40;1.00
1361;DHT22;674;45.552;-122.600;2023-05-14T15:46:05;29.90;1.00
1361;DHT22;674;45.552;-122.600;2023-05-14T15:48:34;30.20;1.00
1361;DHT22;674;45.552;-122.600;2023-05-14T15:51:02;29.60;1.00
1361;DHT22;674;45.552;-122.600;2023-05-14T15:53:31;29.30;1.00
1361;DHT22;674;45.552;-122.600;2023-05-14T15:56:00;29.80;1.00
1361;DHT22;674;45.552;-122.600;2023-05-14T15:58:28;30.70;1.00
1361;DHT22;674;45.552;-122.600;2023-05-14T16:00:57;30.80;1.00
1361;DHT22;674;45.552;-122.600;2023-05-14T16:03:25;30.20;1.00
1361;DHT22;674;45.552;-122.600;2023-05-14T16:05:54;29.90;1.00
1361;DHT22;674;45.552;-122.600;2023-05-14T16:08:23;29.00;1.00